sensor_id;sensor_type;location;lat;lon;timestamp;temperature;humidity
19945;DHT22;10134;50.952;6.930;2022-07-21T00:00:25;24.90;94.10
19945;DHT22;10134;50.952;6.930;2022-07-21T00:02:57;24.90;94.50
19945;DHT22;10134;50.952;6.930;2022-07-21T00:05:25;24.80;94.70
19945;DHT22;10134;50.952;6.930;2022-07-21T00:07:53;24.80;94.90
19945;DHT22;10134;50.952;6.930;2022-07-21T00:10:23;24.80;95.20
19945;DHT22;10134;50.952;6.930;2022-07-21T00:12:51;24.80;95.60
19945;DHT22;10134;50.952;6.930;2022-07-21T00:15:21;24.80;95.90
19945;DHT22;10134;50.952;6.930;2022-07-21T00:17:48;24.70;95.80
19945;DHT22;10134;50.952;6.930;2022-07-21T00:20:17;24.70;95.60
19945;DHT22;10134;50.952;6.930;2022-07-21T00:22:44;24.60;95.80
19945;DHT22;10134;50.952;6.930;2022-07-21T00:25:13;24.70;96.30
19945;DHT22;10134;50.952;6.930;2022-07-21T00:27:41;24.60;96.30
19945;DHT22;10134;50.952;6.930;2022-07-21T00:30:10;24.60;96.70
19945;DHT22;10134;50.952;6.930;2022-07-21T00:32:38;24.60;96.80
19945;DHT22;10134;50.952;6.930;2022-07-21T00:35:06;24.60;96.80
19945;DHT22;10134;50.952;6.930;2022-07-21T00:37:35;24.50;96.80
19945;DHT22;10134;50.952;6.930;2022-07-21T00:40:03;24.50;97.00
19945;DHT22;10134;50.952;6.930;2022-07-21T00:42:32;24.50;97.30
19945;DHT22;10134;50.952;6.930;2022-07-21T00:45:00;24.50;97.40
19945;DHT22;10134;50.952;6.930;2022-07-21T00:47:29;24.40;97.80
19945;DHT22;10134;50.952;6.930;2022-07-21T00:49:58;24.40;97.90
19945;DHT22;10134;50.952;6.930;2022-07-21T00:52:26;24.40;98.10
19945;DHT22;10134;50.952;6.930;2022-07-21T00:54:54;24.40;98.20
19945;DHT22;10134;50.952;6.930;2022-07-21T00:57:21;24.40;98.30
19945;DHT22;10134;50.952;6.930;2022-07-21T00:59:48;24.40;98.60
19945;DHT22;10134;50.952;6.930;2022-07-21T01:02:16;24.40;98.80
19945;DHT22;10134;50.952;6.930;2022-07-21T01:04:43;24.40;99.00
19945;DHT22;10134;50.952;6.930;2022-07-21T01:07:11;24.30;98.90
19945;DHT22;10134;50.952;6.930;2022-07-21T01:09:39;24.30;99.00
19945;DHT22;10134;50.952;6.930;2022-07-21T01:12:06;24.30;99.20
19945;DHT22;10134;50.952;6.930;2022-07-21T01:14:34;24.20;99.60
19945;DHT22;10134;50.952;6.930;2022-07-21T01:17:03;24.20;99.80
19945;DHT22;10134;50.952;6.930;2022-07-21T01:19:30;24.20;99.90
19945;DHT22;10134;50.952;6.930;2022-07-21T01:21:58;24.20;99.90
19945;DHT22;10134;50.952;6.930;2022-07-21T01:24:26;24.20;99.90
19945;DHT22;10134;50.952;6.930;2022-07-21T01:26:54;24.20;99.90
19945;DHT22;10134;50.952;6.930;2022-07-21T01:29:21;24.20;99.90
19945;DHT22;10134;50.952;6.930;2022-07-21T01:31:49;24.20;99.90
19945;DHT22;10134;50.952;6.930;2022-07-21T01:34:17;24.20;99.90
19945;DHT22;10134;50.952;6.930;2022-07-21T01:36:47;24.20;99.90
19945;DHT22;10134;50.952;6.930;2022-07-21T01:39:15;24.10;99.90
19945;DHT22;10134;50.952;6.930;2022-07-21T01:42:01;24.10;99.90
19945;DHT22;10134;50.952;6.930;2022-07-21T01:44:29;24.10;99.90
19945;DHT22;10134;50.952;6.930;2022-07-21T01:46:56;24.10;99.90
19945;DHT22;10134;50.952;6.930;2022-07-21T01:49:23;24.10;99.90
19945;DHT22;10134;50.952;6.930;2022-07-21T01:51:51;24.10;99.90
19945;DHT22;10134;50.952;6.930;2022-07-21T01:54:19;24.00;99.90
19945;DHT22;10134;50.952;6.930;2022-07-21T01:56:51;24.10;99.90
19945;DHT22;10134;50.952;6.930;2022-07-21T01:59:18;24.00;99.90
19945;DHT22;10134;50.952;6.930;2022-07-21T02:01:46;24.00;99.90
19945;DHT22;10134;50.952;6.930;2022-07-21T02:04:13;24.00;99.90
19945;DHT22;10134;50.952;6.930;2022-07-21T02:06:41;24.00;99.90
19945;DHT22;10134;50.952;6.930;2022-07-21T02:09:08;24.00;99.90
19945;DHT22;10134;50.952;6.930;2022-07-21T02:11:36;24.00;99.90
19945;DHT22;10134;50.952;6.930;2022-07-21T02:14:05;24.00;99.90
19945;DHT22;10134;50.952;6.930;2022-07-21T02:16:32;24.00;99.90
19945;DHT22;10134;50.952;6.930;2022-07-21T02:19:00;24.00;99.90
19945;DHT22;10134;50.952;6.930;2022-07-21T02:21:27;24.00;99.90
19945;DHT22;10134;50.952;6.930;2022-07-21T02:23:55;23.90;99.90
19945;DHT22;10134;50.952;6.930;2022-07-21T02:26:22;23.90;99.90
19945;DHT22;10134;50.952;6.930;2022-07-21T02:28:49;23.90;99.90
19945;DHT22;10134;50.952;6.930;2022-07-21T02:31:17;23.90;99.90
19945;DHT22;10134;50.952;6.930;2022-07-21T02:33:45;23.90;99.90
19945;DHT22;10134;50.952;6.930;2022-07-21T02:36:12;23.90;99.90
19945;DHT22;10134;50.952;6.930;2022-07-21T02:38:39;23.90;99.90
19945;DHT22;10134;50.952;6.930;2022-07-21T02:41:07;23.80;99.90
19945;DHT22;10134;50.952;6.930;2022-07-21T02:43:34;23.80;99.90
19945;DHT22;10134;50.952;6.930;2022-07-21T02:46:01;23.80;99.90
19945;DHT22;10134;50.952;6.930;2022-07-21T02:48:29;23.80;99.90
19945;DHT22;10134;50.952;6.930;2022-07-21T02:50:56;23.80;99.90
19945;DHT22;10134;50.952;6.930;2022-07-21T02:53:23;23.80;99.90
19945;DHT22;10134;50.952;6.930;2022-07-21T02:55:51;23.80;99.90
19945;DHT22;10134;50.952;6.930;2022-07-21T02:58:22;23.80;99.90
19945;DHT22;10134;50.952;6.930;2022-07-21T03:00:54;23.80;99.90
19945;DHT22;10134;50.952;6.930;2022-07-21T03:03:24;23.80;99.90
19945;DHT22;10134;50.952;6.930;2022-07-21T03:05:52;23.80;99.90
19945;DHT22;10134;50.952;6.930;2022-07-21T03:08:20;23.80;99.90
19945;DHT22;10134;50.952;6.930;2022-07-21T03:10:48;23.70;99.90
19945;DHT22;10134;50.952;6.930;2022-07-21T03:13:15;23.70;99.90
19945;DHT22;10134;50.952;6.930;2022-07-21T03:15:43;23.70;99.90
19945;DHT22;10134;50.952;6.930;2022-07-21T03:18:10;23.70;99.90
19945;DHT22;10134;50.952;6.930;2022-07-21T03:20:39;23.70;99.90
19945;DHT22;10134;50.952;6.930;2022-07-21T03:23:07;23.70;99.90
19945;DHT22;10134;50.952;6.930;2022-07-21T03:25:35;23.70;99.90
19945;DHT22;10134;50.952;6.930;2022-07-21T03:28:03;23.60;99.90
19945;DHT22;10134;50.952;6.930;2022-07-21T03:30:30;23.60;99.90
19945;DHT22;10134;50.952;6.930;2022-07-21T03:32:58;23.60;99.90
19945;DHT22;10134;50.952;6.930;2022-07-21T03:35:25;23.60;99.90
19945;DHT22;10134;50.952;6.930;2022-07-21T03:37:58;23.60;99.90
19945;DHT22;10134;50.952;6.930;2022-07-21T03:40:28;23.60;99.90
19945;DHT22;10134;50.952;6.930;2022-07-21T03:42:58;23.60;99.90
19945;DHT22;10134;50.952;6.930;2022-07-21T03:45:27;23.50;99.90
19945;DHT22;10134;50.952;6.930;2022-07-21T03:47:58;23.50;99.90
19945;DHT22;10134;50.952;6.930;2022-07-21T03:50:26;23.50;99.90
19945;DHT22;10134;50.952;6.930;2022-07-21T03:52:53;23.40;99.90
19945;DHT22;10134;50.952;6.930;2022-07-21T03:55:21;23.40;99.90
19945;DHT22;10134;50.952;6.930;2022-07-21T03:57:54;23.40;99.90
19945;DHT22;10134;50.952;6.930;2022-07-21T04:00:41;23.40;99.90
19945;DHT22;10134;50.952;6.930;2022-07-21T04:03:09;23.40;99.90
19945;DHT22;10134;50.952;6.930;2022-07-21T04:05:38;23.40;99.90
19945;DHT22;10134;50.952;6.930;2022-07-21T04:08:06;23.30;99.90
19945;DHT22;10134;50.952;6.930;2022-07-21T04:10:37;23.30;99.90
19945;DHT22;10134;50.952;6.930;2022-07-21T04:13:06;23.30;99.90
19945;DHT22;10134;50.952;6.930;2022-07-21T04:15:35;23.30;99.90
19945;DHT22;10134;50.952;6.930;2022-07-21T04:18:03;23.30;99.90
19945;DHT22;10134;50.952;6.930;2022-07-21T04:20:30;23.30;99.90
19945;DHT22;10134;50.952;6.930;2022-07-21T04:22:58;23.20;99.90
19945;DHT22;10134;50.952;6.930;2022-07-21T04:25:25;23.20;99.90
19945;DHT22;10134;50.952;6.930;2022-07-21T04:27:52;23.20;99.90
19945;DHT22;10134;50.952;6.930;2022-07-21T04:30:21;23.20;99.90
19945;DHT22;10134;50.952;6.930;2022-07-21T04:32:49;23.20;99.90
19945;DHT22;10134;50.952;6.930;2022-07-21T04:35:17;23.20;99.90
19945;DHT22;10134;50.952;6.930;2022-07-21T04:37:45;23.20;99.90
19945;DHT22;10134;50.952;6.930;2022-07-21T04:40:13;23.20;99.90
19945;DHT22;10134;50.952;6.930;2022-07-21T04:42:41;23.20;99.90
19945;DHT22;10134;50.952;6.930;2022-07-21T04:45:10;23.20;99.90
19945;DHT22;10134;50.952;6.930;2022-07-21T04:47:44;23.20;99.90
19945;DHT22;10134;50.952;6.930;2022-07-21T04:50:12;23.20;99.90
19945;DHT22;10134;50.952;6.930;2022-07-21T04:52:39;23.20;99.90
19945;DHT22;10134;50.952;6.930;2022-07-21T04:55:07;23.20;99.90
19945;DHT22;10134;50.952;6.930;2022-07-21T04:57:44;23.20;99.90
19945;DHT22;10134;50.952;6.930;2022-07-21T05:00:14;23.20;99.90
19945;DHT22;10134;50.952;6.930;2022-07-21T05:02:42;23.20;99.90
19945;DHT22;10134;50.952;6.930;2022-07-21T05:05:10;23.20;99.90
19945;DHT22;10134;50.952;6.930;2022-07-21T05:07:38;23.20;99.90
19945;DHT22;10134;50.952;6.930;2022-07-21T05:10:07;23.20;99.90
19945;DHT22;10134;50.952;6.930;2022-07-21T05:12:35;23.20;99.90
19945;DHT22;10134;50.952;6.930;2022-07-21T05:15:05;23.20;99.90
19945;DHT22;10134;50.952;6.930;2022-07-21T05:17:33;23.20;99.90
19945;DHT22;10134;50.952;6.930;2022-07-21T05:20:02;23.20;99.90
19945;DHT22;10134;50.952;6.930;2022-07-21T05:22:29;23.30;99.90
19945;DHT22;10134;50.952;6.930;2022-07-21T05:24:56;23.30;99.90
19945;DHT22;10134;50.952;6.930;2022-07-21T05:27:24;23.30;99.90
19945;DHT22;10134;50.952;6.930;2022-07-21T05:29:51;23.30;99.90
19945;DHT22;10134;50.952;6.930;2022-07-21T05:32:19;23.30;99.90
19945;DHT22;10134;50.952;6.930;2022-07-21T05:34:46;23.30;99.90
19945;DHT22;10134;50.952;6.930;2022-07-21T05:37:13;23.30;99.90
19945;DHT22;10134;50.952;6.930;2022-07-21T05:39:41;23.20;99.90
19945;DHT22;10134;50.952;6.930;2022-07-21T05:42:08;23.20;99.90
19945;DHT22;10134;50.952;6.930;2022-07-21T05:44:35;23.20;99.90
19945;DHT22;10134;50.952;6.930;2022-07-21T05:47:03;23.20;99.90
19945;DHT22;10134;50.952;6.930;2022-07-21T05:49:30;23.20;99.90
19945;DHT22;10134;50.952;6.930;2022-07-21T05:51:57;23.20;99.90
19945;DHT22;10134;50.952;6.930;2022-07-21T05:54:24;23.20;99.90
19945;DHT22;10134;50.952;6.930;2022-07-21T05:56:52;23.20;99.90
19945;DHT22;10134;50.952;6.930;2022-07-21T05:59:19;23.10;99.90
19945;DHT22;10134;50.952;6.930;2022-07-21T06:01:46;23.10;99.90
19945;DHT22;10134;50.952;6.930;2022-07-21T06:04:14;23.10;99.90
19945;DHT22;10134;50.952;6.930;2022-07-21T06:06:41;23.10;99.90
19945;DHT22;10134;50.952;6.930;2022-07-21T06:09:08;23.10;99.90
19945;DHT22;10134;50.952;6.930;2022-07-21T06:11:36;23.10;99.90
19945;DHT22;10134;50.952;6.930;2022-07-21T06:14:04;23.10;99.90
19945;DHT22;10134;50.952;6.930;2022-07-21T06:16:31;23.00;99.90
19945;DHT22;10134;50.952;6.930;2022-07-21T06:18:59;23.00;99.90
19945;DHT22;10134;50.952;6.930;2022-07-21T06:21:29;23.00;99.90
19945;DHT22;10134;50.952;6.930;2022-07-21T06:23:56;23.00;99.90
19945;DHT22;10134;50.952;6.930;2022-07-21T06:26:25;23.00;99.90
19945;DHT22;10134;50.952;6.930;2022-07-21T06:28:53;23.00;99.90
19945;DHT22;10134;50.952;6.930;2022-07-21T06:31:21;23.00;99.90
19945;DHT22;10134;50.952;6.930;2022-07-21T06:33:48;23.00;99.90
19945;DHT22;10134;50.952;6.930;2022-07-21T06:36:16;23.00;99.90
19945;DHT22;10134;50.952;6.930;2022-07-21T06:38:44;22.90;99.90
19945;DHT22;10134;50.952;6.930;2022-07-21T06:41:12;22.90;99.90
19945;DHT22;10134;50.952;6.930;2022-07-21T06:43:39;22.90;99.90
19945;DHT22;10134;50.952;6.930;2022-07-21T06:46:07;22.90;99.90
19945;DHT22;10134;50.952;6.930;2022-07-21T06:48:34;22.90;99.90
19945;DHT22;10134;50.952;6.930;2022-07-21T06:51:01;22.90;99.90
19945;DHT22;10134;50.952;6.930;2022-07-21T06:53:29;22.90;99.90
19945;DHT22;10134;50.952;6.930;2022-07-21T06:55:57;22.90;99.90
19945;DHT22;10134;50.952;6.930;2022-07-21T06:58:30;23.00;99.90
19945;DHT22;10134;50.952;6.930;2022-07-21T07:01:06;23.00;99.90
19945;DHT22;10134;50.952;6.930;2022-07-21T07:03:34;23.00;99.90
19945;DHT22;10134;50.952;6.930;2022-07-21T07:06:03;23.00;99.90
19945;DHT22;10134;50.952;6.930;2022-07-21T07:08:31;23.00;99.90
19945;DHT22;10134;50.952;6.930;2022-07-21T07:10:59;23.00;99.90
19945;DHT22;10134;50.952;6.930;2022-07-21T07:13:26;23.10;99.90
19945;DHT22;10134;50.952;6.930;2022-07-21T07:16:13;23.10;99.90
19945;DHT22;10134;50.952;6.930;2022-07-21T07:18:41;23.10;99.90
19945;DHT22;10134;50.952;6.930;2022-07-21T07:21:08;23.10;99.90
19945;DHT22;10134;50.952;6.930;2022-07-21T07:23:38;23.10;99.90
19945;DHT22;10134;50.952;6.930;2022-07-21T07:26:07;23.20;99.90
19945;DHT22;10134;50.952;6.930;2022-07-21T07:28:34;23.20;99.90
19945;DHT22;10134;50.952;6.930;2022-07-21T07:31:02;23.20;99.90
19945;DHT22;10134;50.952;6.930;2022-07-21T07:33:29;23.30;99.90
19945;DHT22;10134;50.952;6.930;2022-07-21T07:35:57;23.30;99.90
19945;DHT22;10134;50.952;6.930;2022-07-21T07:38:24;23.30;99.90
19945;DHT22;10134;50.952;6.930;2022-07-21T07:40:52;23.40;99.90
19945;DHT22;10134;50.952;6.930;2022-07-21T07:43:19;23.40;99.90
19945;DHT22;10134;50.952;6.930;2022-07-21T07:45:47;23.40;99.90
19945;DHT22;10134;50.952;6.930;2022-07-21T07:48:14;23.40;99.90
19945;DHT22;10134;50.952;6.930;2022-07-21T07:50:42;23.40;99.90
19945;DHT22;10134;50.952;6.930;2022-07-21T07:53:09;23.40;99.90
19945;DHT22;10134;50.952;6.930;2022-07-21T07:55:36;23.50;99.90
19945;DHT22;10134;50.952;6.930;2022-07-21T07:58:03;23.50;99.90
19945;DHT22;10134;50.952;6.930;2022-07-21T08:00:31;23.60;99.90
19945;DHT22;10134;50.952;6.930;2022-07-21T08:03:19;23.60;99.90
19945;DHT22;10134;50.952;6.930;2022-07-21T08:05:46;23.60;99.90
19945;DHT22;10134;50.952;6.930;2022-07-21T08:08:15;23.70;99.90
19945;DHT22;10134;50.952;6.930;2022-07-21T08:10:43;23.70;99.90
19945;DHT22;10134;50.952;6.930;2022-07-21T08:13:17;23.70;99.90
19945;DHT22;10134;50.952;6.930;2022-07-21T08:15:46;23.80;99.90
19945;DHT22;10134;50.952;6.930;2022-07-21T08:18:14;23.80;99.90
19945;DHT22;10134;50.952;6.930;2022-07-21T08:20:43;23.90;99.90
19945;DHT22;10134;50.952;6.930;2022-07-21T08:23:10;23.90;99.90
19945;DHT22;10134;50.952;6.930;2022-07-21T08:25:39;23.90;99.90
19945;DHT22;10134;50.952;6.930;2022-07-21T08:28:07;23.90;99.90
19945;DHT22;10134;50.952;6.930;2022-07-21T08:30:35;23.90;99.90
19945;DHT22;10134;50.952;6.930;2022-07-21T08:33:03;23.90;99.90
19945;DHT22;10134;50.952;6.930;2022-07-21T08:35:31;23.90;99.90
19945;DHT22;10134;50.952;6.930;2022-07-21T08:38:05;24.00;99.90
19945;DHT22;10134;50.952;6.930;2022-07-21T08:40:36;24.00;99.90
19945;DHT22;10134;50.952;6.930;2022-07-21T08:43:04;24.10;99.90
19945;DHT22;10134;50.952;6.930;2022-07-21T08:45:32;24.10;99.90
19945;DHT22;10134;50.952;6.930;2022-07-21T08:47:59;24.10;99.90
19945;DHT22;10134;50.952;6.930;2022-07-21T08:50:29;24.20;99.90
19945;DHT22;10134;50.952;6.930;2022-07-21T08:52:57;24.20;99.90
19945;DHT22;10134;50.952;6.930;2022-07-21T08:55:31;24.20;99.90
19945;DHT22;10134;50.952;6.930;2022-07-21T08:57:59;24.20;99.90
19945;DHT22;10134;50.952;6.930;2022-07-21T09:00:26;24.20;99.90
19945;DHT22;10134;50.952;6.930;2022-07-21T09:06:07;24.30;99.90
19945;DHT22;10134;50.952;6.930;2022-07-21T09:08:41;24.30;99.90
19945;DHT22;10134;50.952;6.930;2022-07-21T09:11:13;24.30;99.90
19945;DHT22;10134;50.952;6.930;2022-07-21T09:13:42;24.40;99.90
19945;DHT22;10134;50.952;6.930;2022-07-21T09:16:12;24.40;99.90
19945;DHT22;10134;50.952;6.930;2022-07-21T09:18:47;24.40;99.90
19945;DHT22;10134;50.952;6.930;2022-07-21T09:21:16;24.50;99.90
19945;DHT22;10134;50.952;6.930;2022-07-21T09:23:44;24.50;99.90
19945;DHT22;10134;50.952;6.930;2022-07-21T09:26:12;24.50;99.60
19945;DHT22;10134;50.952;6.930;2022-07-21T09:28:40;24.50;99.00
19945;DHT22;10134;50.952;6.930;2022-07-21T09:31:09;24.60;99.00
19945;DHT22;10134;50.952;6.930;2022-07-21T09:33:45;24.60;98.60
19945;DHT22;10134;50.952;6.930;2022-07-21T09:36:17;24.60;98.40
19945;DHT22;10134;50.952;6.930;2022-07-21T09:38:52;24.60;97.80
19945;DHT22;10134;50.952;6.930;2022-07-21T09:41:22;24.60;97.40
19945;DHT22;10134;50.952;6.930;2022-07-21T09:43:57;24.60;97.50
19945;DHT22;10134;50.952;6.930;2022-07-21T09:46:26;24.70;97.30
19945;DHT22;10134;50.952;6.930;2022-07-21T09:48:58;24.70;96.80
19945;DHT22;10134;50.952;6.930;2022-07-21T09:51:47;24.70;96.60
19945;DHT22;10134;50.952;6.930;2022-07-21T09:54:15;24.70;96.50
19945;DHT22;10134;50.952;6.930;2022-07-21T09:56:44;24.70;96.40
19945;DHT22;10134;50.952;6.930;2022-07-21T09:59:13;24.70;96.20
19945;DHT22;10134;50.952;6.930;2022-07-21T10:01:40;24.70;96.30
19945;DHT22;10134;50.952;6.930;2022-07-21T10:04:08;24.80;96.20
19945;DHT22;10134;50.952;6.930;2022-07-21T10:06:38;24.80;96.20
19945;DHT22;10134;50.952;6.930;2022-07-21T10:09:08;24.80;96.20
19945;DHT22;10134;50.952;6.930;2022-07-21T10:11:41;24.80;96.30
19945;DHT22;10134;50.952;6.930;2022-07-21T10:14:12;24.90;96.10
19945;DHT22;10134;50.952;6.930;2022-07-21T10:16:40;24.90;95.80
19945;DHT22;10134;50.952;6.930;2022-07-21T10:19:19;24.90;96.00
19945;DHT22;10134;50.952;6.930;2022-07-21T10:22:25;24.90;96.00
19945;DHT22;10134;50.952;6.930;2022-07-21T10:24:57;24.90;96.20
19945;DHT22;10134;50.952;6.930;2022-07-21T10:27:25;24.90;95.80
19945;DHT22;10134;50.952;6.930;2022-07-21T10:30:12;25.00;95.30
19945;DHT22;10134;50.952;6.930;2022-07-21T10:32:49;25.00;94.50
19945;DHT22;10134;50.952;6.930;2022-07-21T10:35:28;24.90;94.50
19945;DHT22;10134;50.952;6.930;2022-07-21T10:37:56;24.90;94.30
19945;DHT22;10134;50.952;6.930;2022-07-21T10:45:31;24.80;94.00
19945;DHT22;10134;50.952;6.930;2022-07-21T10:48:00;24.80;94.00
19945;DHT22;10134;50.952;6.930;2022-07-21T10:50:32;24.80;94.00
19945;DHT22;10134;50.952;6.930;2022-07-21T10:53:04;24.80;94.20
19945;DHT22;10134;50.952;6.930;2022-07-21T10:55:35;24.80;94.50
19945;DHT22;10134;50.952;6.930;2022-07-21T11:03:39;24.80;95.60
19945;DHT22;10134;50.952;6.930;2022-07-21T11:08:38;24.80;96.80
19945;DHT22;10134;50.952;6.930;2022-07-21T11:22:16;24.70;98.30
19945;DHT22;10134;50.952;6.930;2022-07-21T11:24:47;24.70;98.60
19945;DHT22;10134;50.952;6.930;2022-07-21T11:27:18;24.70;98.90
19945;DHT22;10134;50.952;6.930;2022-07-21T11:29:52;24.70;99.30
19945;DHT22;10134;50.952;6.930;2022-07-21T11:32:21;24.60;99.60
19945;DHT22;10134;50.952;6.930;2022-07-21T11:34:53;24.60;99.80
19945;DHT22;10134;50.952;6.930;2022-07-21T11:37:46;24.60;99.90
19945;DHT22;10134;50.952;6.930;2022-07-21T11:40:15;24.50;99.90
19945;DHT22;10134;50.952;6.930;2022-07-21T11:42:45;24.60;99.90
19945;DHT22;10134;50.952;6.930;2022-07-21T11:45:14;24.50;99.90
19945;DHT22;10134;50.952;6.930;2022-07-21T11:47:42;24.50;99.90
19945;DHT22;10134;50.952;6.930;2022-07-21T11:50:18;24.40;99.90
19945;DHT22;10134;50.952;6.930;2022-07-21T11:52:45;24.40;99.90
19945;DHT22;10134;50.952;6.930;2022-07-21T11:55:13;24.40;99.90
19945;DHT22;10134;50.952;6.930;2022-07-21T11:57:44;24.40;99.90
19945;DHT22;10134;50.952;6.930;2022-07-21T12:00:13;24.20;99.90
19945;DHT22;10134;50.952;6.930;2022-07-21T12:02:43;24.20;99.90
19945;DHT22;10134;50.952;6.930;2022-07-21T12:05:10;24.10;99.90
19945;DHT22;10134;50.952;6.930;2022-07-21T12:10:27;24.00;99.90
19945;DHT22;10134;50.952;6.930;2022-07-21T12:13:04;23.90;99.90
19945;DHT22;10134;50.952;6.930;2022-07-21T12:15:34;23.90;99.90
19945;DHT22;10134;50.952;6.930;2022-07-21T12:18:05;23.90;99.90
19945;DHT22;10134;50.952;6.930;2022-07-21T12:20:38;23.80;99.90
19945;DHT22;10134;50.952;6.930;2022-07-21T12:23:29;23.80;99.90
19945;DHT22;10134;50.952;6.930;2022-07-21T12:25:58;23.70;99.90
19945;DHT22;10134;50.952;6.930;2022-07-21T12:28:47;23.70;99.90
19945;DHT22;10134;50.952;6.930;2022-07-21T12:31:17;23.70;99.90
19945;DHT22;10134;50.952;6.930;2022-07-21T12:33:50;23.60;99.90
19945;DHT22;10134;50.952;6.930;2022-07-21T12:36:39;23.60;99.90
19945;DHT22;10134;50.952;6.930;2022-07-21T12:39:24;23.60;99.90
19945;DHT22;10134;50.952;6.930;2022-07-21T12:42:35;23.60;99.90
19945;DHT22;10134;50.952;6.930;2022-07-21T12:45:13;23.50;99.90
19945;DHT22;10134;50.952;6.930;2022-07-21T12:47:41;23.50;99.90
19945;DHT22;10134;50.952;6.930;2022-07-21T12:50:13;23.50;99.90
19945;DHT22;10134;50.952;6.930;2022-07-21T12:52:49;23.50;99.90
19945;DHT22;10134;50.952;6.930;2022-07-21T12:55:16;23.50;99.90
19945;DHT22;10134;50.952;6.930;2022-07-21T12:57:44;23.40;99.90
19945;DHT22;10134;50.952;6.930;2022-07-21T13:00:11;23.40;99.90
19945;DHT22;10134;50.952;6.930;2022-07-21T13:02:55;23.40;99.90
19945;DHT22;10134;50.952;6.930;2022-07-21T13:05:24;23.40;99.90
19945;DHT22;10134;50.952;6.930;2022-07-21T13:07:52;23.40;99.90
19945;DHT22;10134;50.952;6.930;2022-07-21T13:10:20;23.30;99.90
19945;DHT22;10134;50.952;6.930;2022-07-21T13:12:48;23.30;99.90
19945;DHT22;10134;50.952;6.930;2022-07-21T13:15:16;23.30;99.90
19945;DHT22;10134;50.952;6.930;2022-07-21T13:17:44;23.30;99.90
19945;DHT22;10134;50.952;6.930;2022-07-21T13:20:12;23.30;99.90
19945;DHT22;10134;50.952;6.930;2022-07-21T13:22:39;23.30;99.90
19945;DHT22;10134;50.952;6.930;2022-07-21T13:25:09;23.20;99.90
19945;DHT22;10134;50.952;6.930;2022-07-21T13:27:37;23.30;99.90
19945;DHT22;10134;50.952;6.930;2022-07-21T13:30:06;23.20;99.90
19945;DHT22;10134;50.952;6.930;2022-07-21T13:32:35;23.20;99.90
19945;DHT22;10134;50.952;6.930;2022-07-21T13:35:04;23.20;99.90
19945;DHT22;10134;50.952;6.930;2022-07-21T13:37:52;23.20;99.90
19945;DHT22;10134;50.952;6.930;2022-07-21T13:40:19;23.20;99.90
19945;DHT22;10134;50.952;6.930;2022-07-21T13:43:07;23.20;99.90
19945;DHT22;10134;50.952;6.930;2022-07-21T13:45:54;23.20;99.90
19945;DHT22;10134;50.952;6.930;2022-07-21T13:48:22;23.20;99.90
19945;DHT22;10134;50.952;6.930;2022-07-21T13:50:49;23.20;99.90
19945;DHT22;10134;50.952;6.930;2022-07-21T13:53:16;23.20;99.90
19945;DHT22;10134;50.952;6.930;2022-07-21T13:55:44;23.20;99.90
19945;DHT22;10134;50.952;6.930;2022-07-21T13:58:12;23.10;99.90
19945;DHT22;10134;50.952;6.930;2022-07-21T14:00:39;23.10;99.90
19945;DHT22;10134;50.952;6.930;2022-07-21T14:03:10;23.10;99.90
19945;DHT22;10134;50.952;6.930;2022-07-21T14:05:37;23.10;99.90
19945;DHT22;10134;50.952;6.930;2022-07-21T14:08:05;23.10;99.90
19945;DHT22;10134;50.952;6.930;2022-07-21T14:10:32;23.00;99.90
19945;DHT22;10134;50.952;6.930;2022-07-21T14:13:00;23.00;99.90
19945;DHT22;10134;50.952;6.930;2022-07-21T14:15:27;23.00;99.90
19945;DHT22;10134;50.952;6.930;2022-07-21T14:17:55;23.00;99.90
19945;DHT22;10134;50.952;6.930;2022-07-21T14:20:24;22.90;99.90
19945;DHT22;10134;50.952;6.930;2022-07-21T14:22:54;22.90;99.90
19945;DHT22;10134;50.952;6.930;2022-07-21T14:25:22;22.90;99.90
19945;DHT22;10134;50.952;6.930;2022-07-21T14:27:52;22.90;99.90
19945;DHT22;10134;50.952;6.930;2022-07-21T14:30:23;22.90;99.90
19945;DHT22;10134;50.952;6.930;2022-07-21T14:32:54;22.90;99.90
19945;DHT22;10134;50.952;6.930;2022-07-21T14:35:22;22.90;99.90
19945;DHT22;10134;50.952;6.930;2022-07-21T14:37:50;22.90;99.90
19945;DHT22;10134;50.952;6.930;2022-07-21T14:40:18;22.90;99.90
19945;DHT22;10134;50.952;6.930;2022-07-21T14:42:48;22.90;99.90
19945;DHT22;10134;50.952;6.930;2022-07-21T14:45:16;22.80;99.90
19945;DHT22;10134;50.952;6.930;2022-07-21T14:47:53;22.80;99.90
19945;DHT22;10134;50.952;6.930;2022-07-21T14:50:22;22.80;99.90
19945;DHT22;10134;50.952;6.930;2022-07-21T14:52:57;22.80;99.90
19945;DHT22;10134;50.952;6.930;2022-07-21T14:55:26;22.70;99.90
19945;DHT22;10134;50.952;6.930;2022-07-21T14:57:55;22.70;99.90
19945;DHT22;10134;50.952;6.930;2022-07-21T15:00:23;22.70;99.90
19945;DHT22;10134;50.952;6.930;2022-07-21T15:02:53;22.60;99.90
19945;DHT22;10134;50.952;6.930;2022-07-21T15:05:21;22.50;99.90
19945;DHT22;10134;50.952;6.930;2022-07-21T15:07:49;22.50;99.90
19945;DHT22;10134;50.952;6.930;2022-07-21T15:10:16;22.50;99.90
19945;DHT22;10134;50.952;6.930;2022-07-21T15:12:44;22.40;99.90
19945;DHT22;10134;50.952;6.930;2022-07-21T15:15:11;22.50;99.90
19945;DHT22;10134;50.952;6.930;2022-07-21T15:17:39;22.40;99.90
19945;DHT22;10134;50.952;6.930;2022-07-21T15:20:07;22.40;99.90
19945;DHT22;10134;50.952;6.930;2022-07-21T15:22:40;22.40;99.90
19945;DHT22;10134;50.952;6.930;2022-07-21T15:25:08;22.50;99.90
19945;DHT22;10134;50.952;6.930;2022-07-21T15:27:41;22.50;99.90
19945;DHT22;10134;50.952;6.930;2022-07-21T15:30:12;22.50;99.90
19945;DHT22;10134;50.952;6.930;2022-07-21T15:32:40;22.60;99.90
19945;DHT22;10134;50.952;6.930;2022-07-21T15:35:10;22.60;99.90
19945;DHT22;10134;50.952;6.930;2022-07-21T15:37:37;22.60;99.90
19945;DHT22;10134;50.952;6.930;2022-07-21T15:40:07;22.60;99.90
19945;DHT22;10134;50.952;6.930;2022-07-21T15:42:35;22.60;99.90
19945;DHT22;10134;50.952;6.930;2022-07-21T15:45:05;22.60;99.90
19945;DHT22;10134;50.952;6.930;2022-07-21T15:47:32;22.60;99.90
19945;DHT22;10134;50.952;6.930;2022-07-21T15:49:59;22.60;99.90
19945;DHT22;10134;50.952;6.930;2022-07-21T15:52:27;22.60;99.90
19945;DHT22;10134;50.952;6.930;2022-07-21T15:54:55;22.70;99.90
19945;DHT22;10134;50.952;6.930;2022-07-21T15:57:27;22.60;99.90
19945;DHT22;10134;50.952;6.930;2022-07-21T15:59:55;22.70;99.90
19945;DHT22;10134;50.952;6.930;2022-07-21T16:02:22;22.70;99.90
19945;DHT22;10134;50.952;6.930;2022-07-21T16:04:50;22.60;99.90
19945;DHT22;10134;50.952;6.930;2022-07-21T16:07:17;22.60;99.90
19945;DHT22;10134;50.952;6.930;2022-07-21T16:09:45;22.60;99.90
19945;DHT22;10134;50.952;6.930;2022-07-21T16:12:12;22.60;99.90
19945;DHT22;10134;50.952;6.930;2022-07-21T16:14:40;22.60;99.90